Flight Track Log - Related Links

Times and Time Zones

All times are in EDT time to prevent confusion due to time zone crossing. See the SKQ35 flight status page for this flight to view local times or setup timezone preferences in your user account.

Time Position Orientation Groundspeed Altitude Reporting Facility
EDT Latitude Longitude Course Direction KTS MPH feet Rate Location/Type
Thu 01:48:45 AM 36.0619 -79.6694 241° Southwest 168 193 7,000  Level Atlanta Center
Thu 01:49:45 AM 36.0342 -79.7147 233° Southwest 168 193 8,500 1,450 Climbing Atlanta Center
Thu 01:50:45 AM 36.0150 -79.7594 242° Southwest 168 193 9,900 1,350 Climbing Atlanta Center
Thu 01:51:00 AM 35.8762 -79.8761 244° Southwest  Level FlightAware Approximate
Thu 01:51:45 AM 35.9917 -79.8119 241° Southwest 174 200 11,200  Level Atlanta Center
Thu 01:52:00 AM 35.8471 -79.9432 241° Southwest  Level FlightAware Approximate
Thu 01:52:45 AM 35.9686 -79.8644 242° Southwest 174 200 12,500  Level Atlanta Center
Thu 01:53:00 AM 35.8169 -80.0095 241° Southwest  Level FlightAware Approximate
Thu 01:53:45 AM 35.9453 -79.9144 240° Southwest 174 200 13,800  Level Atlanta Center
Thu 01:54:00 AM 35.7868 -80.0758 241° Southwest  Level FlightAware Approximate
Thu 01:54:45 AM 35.9200 -79.9747 243° Southwest 174 200 15,100  Level Atlanta Center
Thu 01:55:45 AM 35.8947 -80.0272 239° Southwest 179 206 16,000 450 Climbing Atlanta Center
Thu 01:56:45 AM 35.8675 -80.0925 243° Southwest 197 227 16,000  Level Atlanta Center
Thu 01:57:45 AM 35.8364 -80.1581 240° Southwest 211 243 16,000  Level Atlanta Center
Thu 01:58:45 AM 35.8072 -80.2261 242° Southwest 234 269 16,000  Level Atlanta Center
Thu 01:59:45 AM 35.7761 -80.2992 242° Southwest 245 282 16,000  Level Atlanta Center
Thu 02:00:45 AM 35.7428 -80.3725 241° Southwest 250 288 16,000  Level Atlanta Center
Thu 02:01:45 AM 35.7094 -80.4456 241° Southwest 244 281 16,000  Level Atlanta Center
Thu 02:02:45 AM 35.6781 -80.5158 241° Southwest 249 287 16,000  Level Atlanta Center
Thu 02:03:45 AM 35.6467 -80.5861 241° Southwest 244 281 16,000  Level Atlanta Center
Thu 02:04:45 AM 35.6153 -80.6592 242° Southwest 244 281 16,000  Level Atlanta Center
Thu 02:05:45 AM 35.5778 -80.7372 239° Southwest 244 281 16,000  Level Atlanta Center
Thu 02:06:45 AM 35.5464 -80.8100 242° Southwest 244 281 16,000  Level Atlanta Center
Thu 02:07:45 AM 35.5128 -80.8803 240° Southwest 244 281 16,000  Level Atlanta Center
Thu 02:08:45 AM 35.4792 -80.9528 240° Southwest 244 281 16,000  Level Atlanta Center
Thu 02:09:45 AM 35.4475 -81.0228 241° Southwest 249 287 16,000  Level Atlanta Center
Thu 02:10:45 AM 35.4139 -81.0981 241° Southwest 243 280 16,000  Level Atlanta Center
Thu 02:11:45 AM 35.3842 -81.1628 241° Southwest 249 287 16,000  Level Atlanta Center
Thu 02:12:45 AM 35.3525 -81.2328 241° Southwest 249 287 16,000  Level Atlanta Center
Thu 02:13:45 AM 35.3186 -81.3050 240° Southwest 249 287 16,000  Level Atlanta Center
Thu 02:14:45 AM 35.2867 -81.3772 242° Southwest 243 280 16,000  Level Atlanta Center
Thu 02:15:45 AM 35.2489 -81.4575 240° Southwest 248 285 16,000  Level Atlanta Center
Thu 02:16:45 AM 35.2147 -81.5297 240° Southwest 248 285 16,000  Level Atlanta Center
Thu 02:17:45 AM 35.1828 -81.5992 241° Southwest 248 285 16,000  Level Atlanta Center
Thu 02:18:45 AM 35.1489 -81.6714 240° Southwest 248 285 16,000  Level Atlanta Center
Thu 02:19:45 AM 35.1167 -81.7433 241° Southwest 248 285 16,000  Level Atlanta Center
Thu 02:20:45 AM 35.0847 -81.8178 242° Southwest 248 285 16,000  Level Atlanta Center
Thu 02:21:45 AM 35.0486 -81.8900 239° Southwest 248 285 16,000  Level Atlanta Center
Thu 02:22:45 AM 35.0164 -81.9592 240° Southwest 248 285 16,000  Level Atlanta Center
Thu 02:23:45 AM 34.9861 -82.0233 240° Southwest 248 285 16,000  Level Atlanta Center
Thu 02:24:45 AM 34.9517 -82.0925 239° Southwest 248 285 16,000  Level Atlanta Center
Thu 02:25:45 AM 34.9194 -82.1642 241° Southwest 248 285 16,000  Level Atlanta Center
Thu 02:26:45 AM 34.8850 -82.2333 239° Southwest 248 285 16,000  Level Atlanta Center
Thu 02:27:45 AM 34.8506 -82.3025 239° Southwest 248 285 16,000  Level Atlanta Center
Thu 02:28:45 AM 34.8203 -82.3739 243° Southwest 248 285 16,000  Level Atlanta Center
Thu 02:29:45 AM 34.7856 -82.4428 238° Southwest 248 285 16,000  Level Atlanta Center
Thu 02:30:45 AM 34.7511 -82.5169 241° Southwest 248 285 16,000  Level Atlanta Center
Thu 02:31:45 AM 34.7186 -82.5856 240° Southwest 248 285 16,000  Level Atlanta Center
Thu 02:32:45 AM 34.6839 -82.6519 238° Southwest 248 285 16,000  Level Atlanta Center
Thu 02:33:45 AM 34.6431 -82.7308 238° Southwest 248 285 16,000  Level Atlanta Center
Thu 02:34:45 AM 34.6103 -82.8047 242° Southwest 248 285 16,000  Level Atlanta Center
Thu 02:35:45 AM 34.5756 -82.8758 239° Southwest 248 285 16,000  Level Atlanta Center
Thu 02:36:45 AM 34.5469 -82.9392 241° Southwest 248 285 16,000  Level Atlanta Center
Thu 02:37:45 AM 34.5100 -83.0078 237° Southwest 248 285 16,000 -500 Level Atlanta Center
Thu 02:38:45 AM 34.4772 -83.0864 243° Southwest 253 291 15,000 -1,000 Descending Atlanta Center
Thu 02:39:45 AM 34.4403 -83.1647 240° Southwest 266 306 14,000 -1,000 Descending Atlanta Center
Thu 02:40:45 AM 34.3989 -83.2433 237° Southwest 271 312 13,000 -1,000 Descending Atlanta Center
Thu 02:41:45 AM 34.3639 -83.3217 242° Southwest 270 311 12,000 -1,000 Descending Atlanta Center
Thu 02:42:45 AM 34.3228 -83.4000 238° Southwest 275 316 11,000 -1,000 Descending Atlanta Center
Thu 02:43:45 AM 34.2814 -83.4858 240° Southwest 275 316 10,000 -1,000 Descending Atlanta Center
Thu 02:44:45 AM 34.2419 -83.5639 239° Southwest 270 311 9,000 -1,000 Descending Atlanta Center
Thu 02:45:45 AM 34.2069 -83.6394 241° Southwest 270 311 8,000 -1,000 Descending Atlanta Center
Thu 02:46:45 AM 34.1694 -83.7150 239° Southwest 270 311 7,000 -1,000 Descending Atlanta Center
Thu 02:47:45 AM 34.1322 -83.7878 238° Southwest 264 304 6,000 -550 Descending Atlanta Center
Thu 02:48:45 AM 34.0989 -83.8556 239° Southwest 259 298 5,900 -202 Descending Atlanta Center
Thu 02:49:44 AM 34.0833 -83.9167 253° West 235 270 5,600 -655 Descending Atlanta TRACON
Thu 02:50:44 AM 34.0500 -84.0000 244° Southwest 247 284 4,600 -1,000 Descending Atlanta TRACON
Thu 02:51:44 AM 34.0333 -84.0667 253° West 233 268 3,600 -850 Descending Atlanta TRACON
Thu 02:52:44 AM 34.0167 -84.1333 253° West 208 239 2,900 -350 Descending Atlanta TRACON
Thu 02:53:44 AM 33.9833 -84.2000 239° Southwest 179 206 2,900  Level Atlanta TRACON
Thu 02:55:00 AM 33.9208 -84.2592 244° Southwest  Level Estimated
Thu 03:02:00 AM 33.8667 -84.3000 239° Southwest  Level FlightAware Approximate
Thu 03:03:00 AM 33.8756 -84.3020 239° Southwest  Level Estimated
Thu 03:04:00 AM 33.8756 -84.3020 239° Southwest  Level Estimated
Thu 03:05:00 AM 33.8756 -84.3020 239° Southwest  Level Estimated
Thu 03:06:00 AM 33.8756 -84.3020 239° Southwest  Level Estimated
Thu 03:07:00 AM 33.8756 -84.3020 239° Southwest  Level Estimated
Thu 03:08:00 AM 33.8756 -84.3020 239° Southwest  Level Estimated
Thu 03:09:00 AM 33.8756 -84.3020 239° Southwest  Level Estimated
Thu 03:10:00 AM 33.8756 -84.3020 239° Southwest  Level Estimated
Thu 03:11:00 AM 33.8756 -84.3020 239° Southwest  Level Estimated
Thu 03:12:00 AM 33.8756 -84.3020 239° Southwest  Level Estimated
Thu 03:13:00 AM 33.8756 -84.3020 239° Southwest  Level Estimated

Login

Don't have an account? Register now (free) for customized features, flight alerts, and more!